Terminal Aerodrome Forecast
Issued by NWS

Home | Current Version | Previous Version | Text Only | Print | Product List | Glossary On
Versions: 1 2 3 4 5 6 7 8 9 10 11 12 13 14 15 16 17 18 19
058
FTUS45 KRIW 292338
TAFLND
TAF
KLND 292338Z 3000/3024 03006KT 6SM -RASN SCT007 OVC014
     FM300400 VRB05KT 5SM -SN SCT008 OVC015
     FM301000 35008KT 2SM -SN SCT004 OVC010
     FM302000 01011KT 3SM -RASN SCT003 OVC009=

USA.gov is the U.S. government's official web portal to all federal, state and local government web resources and services.